Ana Sayfa
METAR-TAF:

METAR-TAF

Havaalanları :

İshigaki, Japonya

Enlem: 24-20N, Boylam: 124-10E, yükseklik: 6 m

Güncel hava durumu gözlemi

Rapor saat 12:00 UTC de 46 dakika önce yapıldı.
Rüzgar güney/güneybatıdan 6 kt
Sıcaklık 28°C
Nem 100%
Basınç 1009 hPa
Görüş mesafesi 10 km veya daha fazla

METAR: ROIG 161200Z AUTO 20006KT 9999 NCD 28/28 Q1009

Saat: 21:46 (12:46 UTC)

Tahmin

Rapor saat 11:06 UTC de 1 saat ve 40 dakika önce yapıldı.
Ayın 16'si saat 12 UTC'den ayın 17'si saat 18 UTC'ye kadar geçerli Tahmin
Rüzgar güney/güneybatıdan 10 kt
Görüş mesafesi 10 km veya daha fazla
800 ft yükseklikte az bulutlu
1200 ft yükseklikte parçalı çok bulutlu
Geçici
ayın 16'si saat 12 UTC'den ayın 17'si saat 00 UTC'ye kadar
600 ft yükseklikte az bulutlu
800 ft yükseklikte parçalı çok bulutlu

TAF: ROIG 161106Z 1612/1718 20010KT 9999 FEW008 BKN012 TEMPO 1612/1700 FEW006 BKN008

4.000'den fazla havaalanı için hava durumu gözlemleri ve tahminleri (METAR ve TAF raporları).

Kullanılabilir istasyonlar harita üzerinde sarı ve kırmızı noktalarla gösterilir.

İstasyonun adını görmek için fareyi noktanın üzerinde gezdirin.

Sonrasında hava gözlem ve tahminlerini görmek için tıklayın.

Haritayı değiştirmek için: yaklaştırmak için siyah artı işaretli yeşil düğmeye ve uzaklaştırmak için de eksi işaretli düğmeye hızla tıklayın; bitişik haritalar için yeşil okları kullanın.


METAR-TAF: